createdAt,value
2023-04-15T00:00:03.694Z,2.27
2023-04-15T00:02:32.332Z,2.13
2023-04-15T00:07:42.395Z,2.10
2023-04-15T00:10:11.046Z,2.10
2023-04-15T00:12:40.050Z,2.40
2023-04-15T00:15:13.918Z,2.07
2023-04-15T00:17:43.185Z,1.90
2023-04-15T00:20:12.421Z,2.00
2023-04-15T00:22:41.241Z,2.10
2023-04-15T00:25:11.712Z,1.90
2023-04-15T00:27:41.225Z,2.17
2023-04-15T00:30:14.215Z,2.00
2023-04-15T00:32:42.969Z,1.90
2023-04-15T00:35:16.762Z,2.00
2023-04-15T00:37:46.189Z,1.97
2023-04-15T00:40:22.003Z,1.90
2023-04-15T00:42:51.594Z,1.90
2023-04-15T00:45:30.209Z,2.00
2023-04-15T00:48:00.724Z,1.90
2023-04-15T00:50:31.088Z,1.97
2023-04-15T00:53:01.623Z,1.90
2023-04-15T00:55:30.403Z,1.97
2023-04-15T00:57:59.566Z,2.00
2023-04-15T01:00:28.314Z,1.83
2023-04-15T01:03:01.014Z,1.90
2023-04-15T01:05:29.129Z,1.83
2023-04-15T01:07:59.637Z,1.90
2023-04-15T01:10:28.843Z,1.60
2023-04-15T01:12:55.873Z,1.80
2023-04-15T01:15:32.691Z,1.70
2023-04-15T01:18:00.072Z,2.00
2023-04-15T01:20:30.327Z,2.20
2023-04-15T01:23:06.224Z,1.67
2023-04-15T01:25:38.586Z,1.83
2023-04-15T01:28:07.671Z,1.90
2023-04-15T01:30:36.673Z,1.80
2023-04-15T01:33:06.942Z,1.80
2023-04-15T01:35:56.389Z,1.93
2023-04-15T01:38:38.362Z,1.90
2023-04-15T01:41:17.771Z,1.80
2023-04-15T01:43:52.296Z,2.10
2023-04-15T01:46:23.748Z,1.90
2023-04-15T01:52:16.886Z,2.13
2023-04-15T01:55:28.131Z,1.70
2023-04-15T01:57:56.303Z,1.70
2023-04-15T02:03:53.689Z,1.90
2023-04-15T02:06:35.377Z,2.10
2023-04-15T02:09:17.063Z,2.00
2023-04-15T02:11:47.260Z,2.00
2023-04-15T02:14:20.167Z,2.10
2023-04-15T02:16:47.398Z,2.00
2023-04-15T02:19:30.109Z,2.13
2023-04-15T02:22:19.142Z,2.30
2023-04-15T02:27:56.836Z,1.90
2023-04-15T02:30:34.932Z,2.47
2023-04-15T02:33:15.852Z,2.17
2023-04-15T02:36:04.194Z,1.80
2023-04-15T02:38:43.449Z,2.03
2023-04-15T02:41:15.693Z,2.13
2023-04-15T02:43:45.503Z,2.10
2023-04-15T02:46:20.549Z,1.90
2023-04-15T02:49:08.848Z,2.07
2023-04-15T02:51:37.989Z,1.97
2023-04-15T02:54:26.990Z,2.07
2023-04-15T02:57:13.345Z,2.27
2023-04-15T03:02:41.390Z,2.60
2023-04-15T03:05:18.587Z,3.60
2023-04-15T03:11:19.888Z,2.00
2023-04-15T03:14:13.206Z,1.90
2023-04-15T03:16:40.758Z,2.17
2023-04-15T03:19:35.630Z,2.50
2023-04-15T03:22:26.226Z,2.27
2023-04-15T03:25:18.167Z,2.10
2023-04-15T03:28:05.959Z,2.50
2023-04-15T03:30:39.602Z,2.80
2023-04-15T03:33:19.620Z,2.20
2023-04-15T03:38:55.648Z,2.40
2023-04-15T03:41:35.557Z,2.40
2023-04-15T03:44:21.984Z,2.57
2023-04-15T03:47:08.221Z,2.40
2023-04-15T03:49:38.372Z,2.40
2023-04-15T03:52:19.118Z,2.20
2023-04-15T03:54:57.409Z,2.30
2023-04-15T03:57:37.733Z,2.30
2023-04-15T04:00:25.929Z,2.10
2023-04-15T04:03:13.145Z,2.70
2023-04-15T04:05:53.650Z,2.57
2023-04-15T04:08:39.635Z,2.77
2023-04-15T04:14:31.730Z,2.60
2023-04-15T04:17:04.880Z,2.87
2023-04-15T04:19:57.108Z,2.70
2023-04-15T04:22:38.792Z,3.00
2023-04-15T04:25:33.914Z,3.20
2023-04-15T04:28:31.080Z,3.40
2023-04-15T04:31:07.487Z,3.37
2023-04-15T04:36:42.167Z,3.20
2023-04-15T04:39:32.016Z,3.30
2023-04-15T04:42:28.403Z,3.47
2023-04-15T04:45:13.047Z,3.37
2023-04-15T04:48:31.182Z,3.30
2023-04-15T04:51:31.126Z,2.93
2023-04-15T04:54:20.613Z,2.30
2023-04-15T04:57:01.547Z,2.00
2023-04-15T04:59:31.645Z,2.03
2023-04-15T05:02:15.675Z,2.13
2023-04-15T05:04:46.823Z,2.77
2023-04-15T05:07:26.191Z,2.93
2023-04-15T05:09:59.110Z,3.50
2023-04-15T05:12:38.178Z,3.40
2023-04-15T05:15:13.224Z,3.27
2023-04-15T05:17:40.726Z,3.20
2023-04-15T05:20:25.496Z,3.20
2023-04-15T05:26:11.449Z,3.37
2023-04-15T05:28:38.855Z,3.60
2023-04-15T05:31:16.108Z,4.13
2023-04-15T05:33:54.965Z,3.87
2023-04-15T05:36:26.205Z,4.03
2023-04-15T05:39:10.551Z,5.10
2023-04-15T05:41:39.431Z,4.90
2023-04-15T05:44:10.369Z,12.03
2023-04-15T05:46:50.445Z,8.67
2023-04-15T05:49:28.458Z,14.30
2023-04-15T05:55:21.137Z,9.47
2023-04-15T05:57:59.458Z,10.63
2023-04-15T06:00:55.551Z,12.03
2023-04-15T06:03:50.880Z,11.37
2023-04-15T06:06:29.113Z,10.40
2023-04-15T06:12:13.532Z,9.93
2023-04-15T06:14:42.756Z,10.70
2023-04-15T06:17:20.471Z,9.90
2023-04-15T06:19:56.278Z,9.27
2023-04-15T06:22:25.274Z,10.90
2023-04-15T06:24:55.620Z,10.93
2023-04-15T06:27:25.879Z,10.10
2023-04-15T06:30:13.222Z,9.73
2023-04-15T06:32:43.054Z,10.97
2023-04-15T06:35:15.217Z,8.47
2023-04-15T06:38:01.351Z,9.50
2023-04-15T06:40:39.323Z,8.47
2023-04-15T06:43:11.554Z,8.87
2023-04-15T06:45:38.859Z,8.77
2023-04-15T06:48:08.632Z,7.93
2023-04-15T06:50:38.840Z,7.30
2023-04-15T06:53:07.934Z,5.33
2023-04-15T06:55:38.339Z,6.53
2023-04-15T06:58:12.012Z,7.03
2023-04-15T07:00:42.401Z,6.80
2023-04-15T07:03:14.694Z,6.20
2023-04-15T07:05:46.336Z,6.50
2023-04-15T07:08:22.179Z,6.53
2023-04-15T07:10:49.457Z,5.20
2023-04-15T07:13:18.498Z,5.27
2023-04-15T07:15:47.292Z,3.80
2023-04-15T07:18:16.596Z,4.10
2023-04-15T07:20:48.567Z,4.83
2023-04-15T07:23:17.218Z,5.33
2023-04-15T07:25:48.255Z,5.00
2023-04-15T07:28:17.136Z,5.33
2023-04-15T07:30:53.567Z,5.13
2023-04-15T07:33:29.701Z,4.80
2023-04-15T07:36:01.975Z,5.23
2023-04-15T07:38:32.410Z,5.30
2023-04-15T07:41:02.819Z,5.73
2023-04-15T07:43:33.853Z,4.87
2023-04-15T07:46:03.867Z,5.17
2023-04-15T07:48:36.333Z,4.40
2023-04-15T07:51:09.226Z,4.57
2023-04-15T07:53:44.970Z,5.30
2023-04-15T07:56:15.126Z,4.67
2023-04-15T07:58:44.898Z,4.70
2023-04-15T08:01:22.983Z,4.50
2023-04-15T08:03:52.919Z,4.00
2023-04-15T08:06:27.141Z,3.70
2023-04-15T08:08:58.891Z,3.93
2023-04-15T08:11:28.631Z,4.20
2023-04-15T08:13:57.370Z,4.10
2023-04-15T08:16:31.063Z,3.70
2023-04-15T08:19:01.221Z,4.30
2023-04-15T08:21:32.261Z,3.10
2023-04-15T08:24:01.392Z,3.40
2023-04-15T08:26:28.748Z,3.40
2023-04-15T08:29:01.124Z,2.20
2023-04-15T08:31:31.100Z,2.80
2023-04-15T08:34:02.111Z,2.90
2023-04-15T08:36:38.269Z,3.10
2023-04-15T08:42:20.012Z,2.53
2023-04-15T08:44:49.657Z,2.00
2023-04-15T08:47:28.669Z,2.10
2023-04-15T08:50:09.697Z,2.63
2023-04-15T08:52:37.708Z,2.50
2023-04-15T08:55:08.900Z,2.90
2023-04-15T08:57:38.863Z,4.13
2023-04-15T09:00:17.675Z,3.53
2023-04-15T09:02:48.412Z,3.73
2023-04-15T09:05:17.771Z,3.13
2023-04-15T09:07:46.303Z,3.03
2023-04-15T09:10:24.101Z,2.40
2023-04-15T09:13:01.705Z,2.80
2023-04-15T09:15:34.491Z,2.70
2023-04-15T09:18:05.415Z,2.07
2023-04-15T09:20:45.541Z,2.90
2023-04-15T09:23:17.858Z,2.80
2023-04-15T09:25:53.701Z,2.87
2023-04-15T09:28:28.729Z,2.63
2023-04-15T09:31:13.110Z,2.83
2023-04-15T09:34:02.498Z,2.43
2023-04-15T09:36:53.885Z,2.73
2023-04-15T09:39:23.521Z,2.93
2023-04-15T09:42:12.895Z,2.70
2023-04-15T09:44:47.133Z,2.13
2023-04-15T09:47:40.169Z,2.30
2023-04-15T09:50:14.118Z,2.40
2023-04-15T09:52:47.135Z,2.57
2023-04-15T09:55:19.464Z,2.47
2023-04-15T09:57:50.025Z,2.23
2023-04-15T10:00:20.266Z,2.40
2023-04-15T10:02:53.305Z,1.90
2023-04-15T10:05:24.774Z,2.27
2023-04-15T10:07:54.977Z,2.23
2023-04-15T10:10:24.134Z,2.30
2023-04-15T10:12:54.488Z,2.37
2023-04-15T10:15:34.096Z,2.43
2023-04-15T10:18:07.141Z,2.57
2023-04-15T10:21:24.326Z,2.67
2023-04-15T10:23:54.977Z,2.30
2023-04-15T10:26:24.209Z,2.17
2023-04-15T10:28:56.490Z,2.20
2023-04-15T10:31:27.152Z,2.40
2023-04-15T10:33:59.298Z,2.40
2023-04-15T10:36:30.178Z,2.10
2023-04-15T10:38:59.622Z,2.30
2023-04-15T10:41:39.637Z,2.20
2023-04-15T10:44:10.419Z,2.27
2023-04-15T10:46:51.705Z,2.47
2023-04-15T10:49:28.418Z,2.13
2023-04-15T10:52:16.938Z,2.20
2023-04-15T10:54:50.893Z,2.20
2023-04-15T10:57:25.529Z,2.00
2023-04-15T11:00:13.813Z,2.17
2023-04-15T11:02:55.605Z,2.80
2023-04-15T11:06:10.014Z,2.53
2023-04-15T11:09:04.129Z,2.57
2023-04-15T11:12:18.451Z,2.20
2023-04-15T11:14:54.720Z,2.37
2023-04-15T11:17:31.001Z,2.70
2023-04-15T11:20:02.257Z,2.37
2023-04-15T11:22:31.905Z,2.67
2023-04-15T11:25:00.569Z,2.90
2023-04-15T11:27:33.060Z,2.40
2023-04-15T11:30:01.098Z,2.40
2023-04-15T11:32:34.415Z,2.20
2023-04-15T11:35:08.134Z,2.10
2023-04-15T11:37:35.783Z,2.30
2023-04-15T11:40:06.012Z,2.10
2023-04-15T11:42:48.676Z,2.23
2023-04-15T11:45:19.067Z,2.33
2023-04-15T11:47:47.382Z,2.30
2023-04-15T11:50:31.784Z,2.57
2023-04-15T11:53:08.146Z,2.03
2023-04-15T11:55:49.780Z,2.10
2023-04-15T11:58:25.705Z,2.17
2023-04-15T12:01:01.411Z,2.40
2023-04-15T12:03:31.980Z,2.10
2023-04-15T12:06:29.097Z,2.20
2023-04-15T12:09:19.137Z,2.20
2023-04-15T12:11:53.694Z,2.37
2023-04-15T12:14:35.619Z,2.50
2023-04-15T12:17:06.616Z,2.50
2023-04-15T12:19:45.731Z,3.10
2023-04-15T12:22:20.261Z,3.00
2023-04-15T12:24:57.374Z,2.50
2023-04-15T12:27:31.279Z,2.67
2023-04-15T12:30:10.275Z,2.30
2023-04-15T12:32:43.905Z,2.80
2023-04-15T12:35:12.403Z,2.60
2023-04-15T12:37:42.374Z,2.27
2023-04-15T12:40:11.628Z,2.20
2023-04-15T12:42:48.417Z,1.87
2023-04-15T12:45:19.214Z,2.30
2023-04-15T12:47:56.120Z,2.23
2023-04-15T12:50:26.359Z,1.73
2023-04-15T12:53:03.943Z,2.00
2023-04-15T12:55:40.342Z,2.53
2023-04-15T12:58:09.062Z,2.20
2023-04-15T13:00:39.767Z,2.10
2023-04-15T13:03:09.326Z,2.50
2023-04-15T13:05:41.219Z,2.40
2023-04-15T13:08:19.926Z,2.50
2023-04-15T13:10:56.746Z,2.20
2023-04-15T13:13:27.848Z,2.17
2023-04-15T13:16:03.095Z,2.63
2023-04-15T13:18:32.134Z,2.30
2023-04-15T13:21:09.388Z,2.40
2023-04-15T13:23:39.394Z,2.50
2023-04-15T13:26:09.545Z,2.10
2023-04-15T13:28:41.426Z,2.03
2023-04-15T13:31:11.492Z,2.30
2023-04-15T13:33:41.761Z,2.00
2023-04-15T13:36:10.979Z,2.07
2023-04-15T13:38:41.656Z,2.20
2023-04-15T13:41:10.160Z,2.50
2023-04-15T13:43:38.514Z,2.80
2023-04-15T13:46:07.839Z,2.80
2023-04-15T13:48:36.679Z,2.90
2023-04-15T13:51:07.505Z,2.67
2023-04-15T13:53:39.396Z,2.40
2023-04-15T13:56:15.321Z,3.10
2023-04-15T13:58:45.250Z,2.90
2023-04-15T14:01:15.843Z,3.60
2023-04-15T14:03:42.892Z,3.10
2023-04-15T14:06:12.520Z,2.77
2023-04-15T14:08:48.033Z,2.40
2023-04-15T14:11:15.375Z,2.40
2023-04-15T14:13:53.989Z,2.77
2023-04-15T14:16:22.592Z,2.50
2023-04-15T14:18:50.369Z,2.30
2023-04-15T14:21:20.050Z,2.80
2023-04-15T14:23:49.708Z,2.90
2023-04-15T14:26:20.348Z,3.30
2023-04-15T14:28:57.349Z,2.73
2023-04-15T14:31:25.822Z,2.87
2023-04-15T14:33:54.546Z,2.53
2023-04-15T14:36:25.225Z,2.73
2023-04-15T14:38:54.182Z,2.40
2023-04-15T14:41:23.654Z,2.43
2023-04-15T14:43:52.625Z,2.17
2023-04-15T14:46:22.244Z,2.47
2023-04-15T14:48:50.350Z,2.10
2023-04-15T14:51:20.443Z,2.50
2023-04-15T14:53:50.942Z,2.37
2023-04-15T14:56:21.594Z,2.10
2023-04-15T14:58:59.014Z,2.20
2023-04-15T15:01:30.278Z,2.10
2023-04-15T15:03:58.055Z,2.07
2023-04-15T15:06:26.747Z,2.33
2023-04-15T15:08:55.974Z,1.93
2023-04-15T15:11:25.898Z,1.90
2023-04-15T15:13:53.405Z,2.10
2023-04-15T15:16:21.888Z,2.23
2023-04-15T15:18:49.409Z,2.13
2023-04-15T15:21:25.278Z,2.33
2023-04-15T15:23:54.383Z,2.07
2023-04-15T15:26:24.941Z,2.33
2023-04-15T15:28:55.908Z,2.23
2023-04-15T15:31:26.924Z,2.17
2023-04-15T15:33:54.212Z,1.70
2023-04-15T15:36:23.759Z,1.90
2023-04-15T15:39:00.630Z,2.30
2023-04-15T15:41:27.600Z,2.50
2023-04-15T15:43:56.475Z,2.30
2023-04-15T15:46:24.719Z,2.30
2023-04-15T15:48:54.391Z,2.10
2023-04-15T15:51:21.832Z,1.70
2023-04-15T15:53:51.018Z,1.83
2023-04-15T15:56:21.714Z,1.77
2023-04-15T15:58:53.367Z,2.40
2023-04-15T16:01:24.483Z,1.90
2023-04-15T16:03:53.171Z,1.90
2023-04-15T16:06:23.052Z,2.13
2023-04-15T16:08:51.982Z,3.80
2023-04-15T16:11:21.994Z,3.00
2023-04-15T16:13:51.873Z,3.33
2023-04-15T16:16:21.035Z,3.60
2023-04-15T16:18:52.295Z,3.20
2023-04-15T16:21:26.134Z,3.30
2023-04-15T16:23:54.008Z,2.67
2023-04-15T16:26:23.003Z,2.60
2023-04-15T16:28:52.305Z,2.50
2023-04-15T16:31:23.445Z,2.60
2023-04-15T16:33:53.093Z,3.77
2023-04-15T16:36:24.954Z,3.30
2023-04-15T16:38:53.733Z,3.37
2023-04-15T16:41:22.710Z,3.47
2023-04-15T16:43:51.453Z,3.77
2023-04-15T16:46:21.541Z,3.47
2023-04-15T16:48:49.972Z,3.67
2023-04-15T16:51:20.050Z,4.03
2023-04-15T16:53:48.572Z,2.77
2023-04-15T16:56:20.294Z,2.90
2023-04-15T16:58:48.943Z,3.13
2023-04-15T17:01:29.074Z,3.37
2023-04-15T17:04:00.001Z,3.33
2023-04-15T17:06:27.348Z,2.57
2023-04-15T17:08:56.180Z,2.70
2023-04-15T17:11:29.851Z,2.90
2023-04-15T17:13:58.308Z,3.10
2023-04-15T17:16:25.951Z,4.23
2023-04-15T17:18:53.567Z,5.83
2023-04-15T17:21:24.101Z,5.77
2023-04-15T17:23:54.486Z,5.80
2023-04-15T17:26:29.750Z,3.97
2023-04-15T17:28:58.370Z,3.97
2023-04-15T17:31:25.470Z,3.60
2023-04-15T17:34:06.151Z,4.20
2023-04-15T17:36:39.710Z,4.70
2023-04-15T17:39:09.151Z,5.83
2023-04-15T17:41:37.631Z,5.57
2023-04-15T17:44:04.954Z,5.50
2023-04-15T17:46:41.317Z,5.23
2023-04-15T17:49:09.501Z,4.97
2023-04-15T17:51:37.761Z,4.53
2023-04-15T17:54:16.367Z,4.97
2023-04-15T17:56:46.209Z,5.23
2023-04-15T17:59:17.505Z,6.10
2023-04-15T18:01:49.508Z,5.87
2023-04-15T18:04:18.321Z,6.73
2023-04-15T18:06:47.329Z,5.37
2023-04-15T18:09:15.749Z,5.77
2023-04-15T18:11:47.763Z,5.33
2023-04-15T18:14:27.001Z,4.17
2023-04-15T18:17:04.728Z,3.87
2023-04-15T18:19:32.417Z,4.07
2023-04-15T18:22:02.108Z,4.77
2023-04-15T18:24:32.458Z,3.90
2023-04-15T18:27:02.810Z,3.63
2023-04-15T18:29:39.173Z,3.90
2023-04-15T18:32:10.072Z,3.80
2023-04-15T18:34:37.191Z,4.43
2023-04-15T18:37:07.974Z,3.80
2023-04-15T18:39:38.987Z,4.93
2023-04-15T18:42:07.294Z,4.23
2023-04-15T18:44:35.835Z,3.43
2023-04-15T18:47:04.497Z,4.53
2023-04-15T18:49:33.444Z,5.37
2023-04-15T18:52:03.093Z,4.70
2023-04-15T18:54:30.336Z,4.47
2023-04-15T18:56:58.992Z,4.50
2023-04-15T18:59:30.853Z,4.97
2023-04-15T19:02:03.065Z,5.00
2023-04-15T19:04:32.834Z,4.63
2023-04-15T19:07:02.214Z,5.10
2023-04-15T19:09:41.135Z,4.50
2023-04-15T19:12:09.732Z,6.33
2023-04-15T19:14:46.654Z,6.53
2023-04-15T19:17:15.671Z,6.47
2023-04-15T19:19:45.353Z,6.67
2023-04-15T19:22:15.773Z,7.53
2023-04-15T19:24:45.373Z,7.23
2023-04-15T19:27:14.452Z,6.17
2023-04-15T19:29:42.787Z,6.43
2023-04-15T19:32:13.905Z,7.37
2023-04-15T19:34:47.110Z,7.67
2023-04-15T19:37:26.192Z,6.50
2023-04-15T19:39:55.949Z,6.07
2023-04-15T19:42:25.015Z,5.60
2023-04-15T19:44:56.195Z,5.20
2023-04-15T19:47:23.382Z,5.77
2023-04-15T19:50:17.547Z,5.90
2023-04-15T19:52:54.035Z,5.67
2023-04-15T19:55:23.978Z,6.33
2023-04-15T19:57:52.493Z,5.50
2023-04-15T20:00:22.934Z,5.40
2023-04-15T20:02:53.430Z,5.07
2023-04-15T20:05:26.695Z,5.37
2023-04-15T20:07:55.249Z,6.03
2023-04-15T20:10:23.613Z,11.33
2023-04-15T20:13:02.416Z,4.90
2023-04-15T20:15:30.183Z,4.17
2023-04-15T20:18:00.120Z,4.80
2023-04-15T20:20:30.034Z,3.87
2023-04-15T20:22:59.487Z,3.70
2023-04-15T20:25:27.698Z,2.77
2023-04-15T20:27:58.152Z,4.40
2023-04-15T20:30:32.257Z,4.87
2023-04-15T20:33:01.662Z,4.40
2023-04-15T20:35:38.572Z,4.73
2023-04-15T20:38:07.571Z,5.83
2023-04-15T20:40:40.548Z,4.23
2023-04-15T20:43:11.649Z,3.53
2023-04-15T20:45:41.334Z,4.27
2023-04-15T20:48:10.250Z,4.20
2023-04-15T20:50:40.937Z,4.63
2023-04-15T20:53:10.212Z,5.30
2023-04-15T20:55:39.095Z,5.07
2023-04-15T20:58:07.019Z,5.17
2023-04-15T21:00:35.713Z,6.50
2023-04-15T21:03:06.329Z,6.63
2023-04-15T21:05:35.436Z,7.30
2023-04-15T21:08:02.874Z,6.67
2023-04-15T21:10:36.149Z,5.53
2023-04-15T21:13:07.987Z,5.87
2023-04-15T21:15:35.186Z,6.33
2023-04-15T21:18:02.574Z,7.60
2023-04-15T21:20:32.455Z,7.00
2023-04-15T21:23:00.815Z,5.10
2023-04-15T21:25:29.416Z,4.53
2023-04-15T21:28:00.128Z,4.20
2023-04-15T21:30:30.572Z,4.50
2023-04-15T21:33:01.314Z,5.10
2023-04-15T21:35:34.174Z,4.90
2023-04-15T21:38:02.516Z,4.13
2023-04-15T21:40:32.351Z,4.83
2023-04-15T21:43:01.789Z,4.90
2023-04-15T21:45:32.255Z,5.60
2023-04-15T21:48:16.390Z,4.93
2023-04-15T21:50:46.121Z,6.17
2023-04-15T21:53:15.388Z,6.50
2023-04-15T21:55:43.914Z,7.37
2023-04-15T21:58:12.129Z,7.17
2023-04-15T22:00:43.114Z,8.30
2023-04-15T22:03:11.333Z,8.70
2023-04-15T22:05:39.639Z,9.23
2023-04-15T22:08:08.260Z,9.80
2023-04-15T22:10:42.709Z,9.90
2023-04-15T22:13:19.271Z,10.00
2023-04-15T22:15:46.483Z,9.37
2023-04-15T22:18:15.188Z,8.67
2023-04-15T22:20:43.039Z,8.20
2023-04-15T22:23:11.726Z,8.10
2023-04-15T22:25:42.634Z,7.37
2023-04-15T22:28:10.179Z,7.87
2023-04-15T22:30:43.338Z,9.57
2023-04-15T22:33:11.574Z,8.40
2023-04-15T22:35:40.127Z,8.37
2023-04-15T22:38:07.527Z,7.33
2023-04-15T22:40:37.579Z,7.60
2023-04-15T22:43:07.113Z,6.97
2023-04-15T22:45:43.849Z,6.90
2023-04-15T22:48:11.233Z,6.87
2023-04-15T22:50:41.774Z,6.37
2023-04-15T22:53:12.026Z,6.33
2023-04-15T22:55:40.191Z,6.43
2023-04-15T22:58:07.193Z,6.87
2023-04-15T23:00:40.093Z,6.40
2023-04-15T23:03:13.423Z,6.60
2023-04-15T23:05:42.669Z,6.17
2023-04-15T23:08:10.972Z,5.20
2023-04-15T23:10:40.811Z,4.53
2023-04-15T23:13:10.109Z,3.83
2023-04-15T23:15:38.833Z,3.83
2023-04-15T23:18:09.328Z,4.07
2023-04-15T23:20:38.500Z,4.60
2023-04-15T23:23:07.677Z,5.37
2023-04-15T23:25:38.083Z,4.63
2023-04-15T23:28:10.066Z,4.97
2023-04-15T23:30:38.475Z,4.63
2023-04-15T23:33:11.010Z,5.40
2023-04-15T23:35:49.610Z,5.50
2023-04-15T23:38:18.370Z,6.00
2023-04-15T23:40:49.488Z,7.00
2023-04-15T23:43:19.346Z,6.97
2023-04-15T23:45:49.596Z,6.57
2023-04-15T23:48:19.050Z,10.20
2023-04-15T23:50:50.744Z,8.23
2023-04-15T23:53:27.873Z,10.10
2023-04-15T23:55:59.690Z,13.10
2023-04-15T23:58:29.530Z,12.33
